sensor_id;sensor_type;location;lat;lon;timestamp;temperature;humidity
43607;DHT22;29197;44.788;10.366;2023-06-26T00:00:18;25.10;99.90
43607;DHT22;29197;44.788;10.366;2023-06-26T00:03:07;25.10;99.90
43607;DHT22;29197;44.788;10.366;2023-06-26T00:05:56;25.20;99.90
43607;DHT22;29197;44.788;10.366;2023-06-26T00:08:48;25.20;99.90
43607;DHT22;29197;44.788;10.366;2023-06-26T00:11:36;25.20;99.90
43607;DHT22;29197;44.788;10.366;2023-06-26T00:14:25;25.20;99.90
43607;DHT22;29197;44.788;10.366;2023-06-26T00:17:14;24.80;99.90
43607;DHT22;29197;44.788;10.366;2023-06-26T00:20:04;24.80;99.90
43607;DHT22;29197;44.788;10.366;2023-06-26T00:22:54;24.70;99.90
43607;DHT22;29197;44.788;10.366;2023-06-26T00:28:34;24.70;99.90
43607;DHT22;29197;44.788;10.366;2023-06-26T00:31:23;24.80;99.90
43607;DHT22;29197;44.788;10.366;2023-06-26T00:34:13;24.90;99.90
43607;DHT22;29197;44.788;10.366;2023-06-26T00:37:02;25.00;99.90
43607;DHT22;29197;44.788;10.366;2023-06-26T00:39:51;25.00;99.90
43607;DHT22;29197;44.788;10.366;2023-06-26T00:42:39;25.00;99.90
43607;DHT22;29197;44.788;10.366;2023-06-26T00:45:28;25.00;99.90
43607;DHT22;29197;44.788;10.366;2023-06-26T00:48:29;24.70;99.90
43607;DHT22;29197;44.788;10.366;2023-06-26T00:51:19;24.70;99.90
43607;DHT22;29197;44.788;10.366;2023-06-26T00:54:08;24.70;99.90
43607;DHT22;29197;44.788;10.366;2023-06-26T00:56:56;24.60;99.90
43607;DHT22;29197;44.788;10.366;2023-06-26T00:59:45;24.50;99.90
43607;DHT22;29197;44.788;10.366;2023-06-26T01:02:34;24.40;99.90
43607;DHT22;29197;44.788;10.366;2023-06-26T01:05:22;24.50;99.90
43607;DHT22;29197;44.788;10.366;2023-06-26T01:08:13;24.60;99.90
43607;DHT22;29197;44.788;10.366;2023-06-26T01:11:02;24.70;99.90
43607;DHT22;29197;44.788;10.366;2023-06-26T01:16:41;24.30;99.90
43607;DHT22;29197;44.788;10.366;2023-06-26T01:19:34;24.20;99.90
43607;DHT22;29197;44.788;10.366;2023-06-26T01:22:28;24.30;99.90
43607;DHT22;29197;44.788;10.366;2023-06-26T01:25:31;24.40;99.90
43607;DHT22;29197;44.788;10.366;2023-06-26T01:28:27;24.50;99.90
43607;DHT22;29197;44.788;10.366;2023-06-26T01:31:18;24.50;99.90
43607;DHT22;29197;44.788;10.366;2023-06-26T01:34:07;24.50;99.90
43607;DHT22;29197;44.788;10.366;2023-06-26T01:36:56;24.20;99.90
43607;DHT22;29197;44.788;10.366;2023-06-26T01:39:44;24.20;99.90
43607;DHT22;29197;44.788;10.366;2023-06-26T01:42:33;24.20;99.90
43607;DHT22;29197;44.788;10.366;2023-06-26T01:45:27;24.30;99.90
43607;DHT22;29197;44.788;10.366;2023-06-26T01:48:23;24.20;99.90
43607;DHT22;29197;44.788;10.366;2023-06-26T01:51:14;24.40;99.90
43607;DHT22;29197;44.788;10.366;2023-06-26T01:54:09;24.50;99.90
43607;DHT22;29197;44.788;10.366;2023-06-26T01:56:59;24.60;99.90
43607;DHT22;29197;44.788;10.366;2023-06-26T01:59:48;24.70;99.90
43607;DHT22;29197;44.788;10.366;2023-06-26T02:02:40;24.80;99.90
43607;DHT22;29197;44.788;10.366;2023-06-26T02:05:29;24.90;99.90
43607;DHT22;29197;44.788;10.366;2023-06-26T02:08:18;24.90;99.90
43607;DHT22;29197;44.788;10.366;2023-06-26T02:11:06;24.90;99.90
43607;DHT22;29197;44.788;10.366;2023-06-26T02:13:55;24.80;99.90
43607;DHT22;29197;44.788;10.366;2023-06-26T02:16:43;24.70;99.90
43607;DHT22;29197;44.788;10.366;2023-06-26T02:19:33;24.70;99.90
43607;DHT22;29197;44.788;10.366;2023-06-26T02:22:22;24.70;99.90
43607;DHT22;29197;44.788;10.366;2023-06-26T02:25:10;24.50;99.90
43607;DHT22;29197;44.788;10.366;2023-06-26T02:27:59;24.30;99.90
43607;DHT22;29197;44.788;10.366;2023-06-26T02:30:48;24.20;99.90
43607;DHT22;29197;44.788;10.366;2023-06-26T02:33:37;24.30;99.90
43607;DHT22;29197;44.788;10.366;2023-06-26T02:36:27;24.40;99.90
43607;DHT22;29197;44.788;10.366;2023-06-26T02:39:16;24.20;99.90
43607;DHT22;29197;44.788;10.366;2023-06-26T02:42:05;24.00;99.90
43607;DHT22;29197;44.788;10.366;2023-06-26T03:32:47;23.60;99.90
43607;DHT22;29197;44.788;10.366;2023-06-26T03:35:36;23.50;99.90
43607;DHT22;29197;44.788;10.366;2023-06-26T03:38:25;23.30;99.90
43607;DHT22;29197;44.788;10.366;2023-06-26T03:41:14;23.00;99.90
43607;DHT22;29197;44.788;10.366;2023-06-26T03:44:04;22.90;99.90
43607;DHT22;29197;44.788;10.366;2023-06-26T03:46:52;23.30;99.90
43607;DHT22;29197;44.788;10.366;2023-06-26T03:49:41;23.60;99.90
43607;DHT22;29197;44.788;10.366;2023-06-26T03:52:29;23.80;99.90
43607;DHT22;29197;44.788;10.366;2023-06-26T03:55:19;24.00;99.90
43607;DHT22;29197;44.788;10.366;2023-06-26T03:58:08;24.10;99.90
43607;DHT22;29197;44.788;10.366;2023-06-26T04:00:58;24.20;99.90
43607;DHT22;29197;44.788;10.366;2023-06-26T04:03:47;24.10;99.90
43607;DHT22;29197;44.788;10.366;2023-06-26T04:06:36;24.10;99.90
43607;DHT22;29197;44.788;10.366;2023-06-26T04:09:24;24.20;99.90
43607;DHT22;29197;44.788;10.366;2023-06-26T04:12:13;24.30;99.90
43607;DHT22;29197;44.788;10.366;2023-06-26T04:15:02;24.40;99.90
43607;DHT22;29197;44.788;10.366;2023-06-26T04:17:52;24.50;99.90
43607;DHT22;29197;44.788;10.366;2023-06-26T04:23:46;24.80;99.90
43607;DHT22;29197;44.788;10.366;2023-06-26T04:26:35;25.00;99.90
43607;DHT22;29197;44.788;10.366;2023-06-26T04:29:24;25.20;99.90
43607;DHT22;29197;44.788;10.366;2023-06-26T04:32:14;25.30;99.90
43607;DHT22;29197;44.788;10.366;2023-06-26T04:35:04;25.30;99.90
43607;DHT22;29197;44.788;10.366;2023-06-26T04:37:53;25.40;99.90
43607;DHT22;29197;44.788;10.366;2023-06-26T04:40:41;25.40;99.90
43607;DHT22;29197;44.788;10.366;2023-06-26T04:43:30;25.30;99.90
43607;DHT22;29197;44.788;10.366;2023-06-26T04:46:18;25.40;99.90
43607;DHT22;29197;44.788;10.366;2023-06-26T04:49:07;25.40;99.90
43607;DHT22;29197;44.788;10.366;2023-06-26T04:51:57;25.50;99.90
43607;DHT22;29197;44.788;10.366;2023-06-26T04:54:47;25.50;99.90
43607;DHT22;29197;44.788;10.366;2023-06-26T04:57:35;25.60;99.90
43607;DHT22;29197;44.788;10.366;2023-06-26T05:03:14;25.70;99.90
43607;DHT22;29197;44.788;10.366;2023-06-26T05:06:04;25.60;99.90
43607;DHT22;29197;44.788;10.366;2023-06-26T05:08:57;25.60;99.90
43607;DHT22;29197;44.788;10.366;2023-06-26T05:11:46;25.50;99.90
43607;DHT22;29197;44.788;10.366;2023-06-26T05:14:34;25.50;99.90
43607;DHT22;29197;44.788;10.366;2023-06-26T05:17:23;25.40;99.90
43607;DHT22;29197;44.788;10.366;2023-06-26T05:20:11;25.40;99.90
43607;DHT22;29197;44.788;10.366;2023-06-26T05:23:00;25.30;99.90
43607;DHT22;29197;44.788;10.366;2023-06-26T05:25:51;25.00;99.90
43607;DHT22;29197;44.788;10.366;2023-06-26T05:28:40;24.80;99.90
43607;DHT22;29197;44.788;10.366;2023-06-26T05:31:33;24.80;99.90
43607;DHT22;29197;44.788;10.366;2023-06-26T05:34:23;24.90;99.90
43607;DHT22;29197;44.788;10.366;2023-06-26T05:40:04;25.00;99.90
43607;DHT22;29197;44.788;10.366;2023-06-26T05:42:55;25.00;99.90
43607;DHT22;29197;44.788;10.366;2023-06-26T05:45:43;25.00;99.90
43607;DHT22;29197;44.788;10.366;2023-06-26T05:48:32;25.00;99.90
43607;DHT22;29197;44.788;10.366;2023-06-26T05:51:21;25.20;99.90
43607;DHT22;29197;44.788;10.366;2023-06-26T05:54:11;25.20;99.90
43607;DHT22;29197;44.788;10.366;2023-06-26T05:57:01;25.20;99.90
43607;DHT22;29197;44.788;10.366;2023-06-26T05:59:51;25.20;99.90
43607;DHT22;29197;44.788;10.366;2023-06-26T06:02:41;25.30;99.90
43607;DHT22;29197;44.788;10.366;2023-06-26T06:11:08;25.80;99.90
43607;DHT22;29197;44.788;10.366;2023-06-26T06:13:56;26.00;99.90
43607;DHT22;29197;44.788;10.366;2023-06-26T07:32:58;28.50;99.90
43607;DHT22;29197;44.788;10.366;2023-06-26T07:35:47;28.60;99.90
43607;DHT22;29197;44.788;10.366;2023-06-26T07:38:35;28.30;99.90
43607;DHT22;29197;44.788;10.366;2023-06-26T07:41:25;28.30;99.90
43607;DHT22;29197;44.788;10.366;2023-06-26T07:44:16;28.60;99.90
43607;DHT22;29197;44.788;10.366;2023-06-26T07:47:05;28.80;99.90
43607;DHT22;29197;44.788;10.366;2023-06-26T07:49:53;29.00;99.90
43607;DHT22;29197;44.788;10.366;2023-06-26T07:52:42;29.00;99.90
43607;DHT22;29197;44.788;10.366;2023-06-26T07:55:31;29.10;99.90
43607;DHT22;29197;44.788;10.366;2023-06-26T07:58:20;29.20;99.90
43607;DHT22;29197;44.788;10.366;2023-06-26T08:01:09;29.30;99.90
43607;DHT22;29197;44.788;10.366;2023-06-26T08:03:58;29.40;99.90
43607;DHT22;29197;44.788;10.366;2023-06-26T08:06:48;29.50;99.90
43607;DHT22;29197;44.788;10.366;2023-06-26T08:09:36;29.50;99.90
43607;DHT22;29197;44.788;10.366;2023-06-26T08:12:25;29.60;99.90
43607;DHT22;29197;44.788;10.366;2023-06-26T08:15:15;29.70;99.90
43607;DHT22;29197;44.788;10.366;2023-06-26T08:18:03;29.60;99.90
43607;DHT22;29197;44.788;10.366;2023-06-26T08:20:52;29.60;99.90
43607;DHT22;29197;44.788;10.366;2023-06-26T08:23:40;29.70;99.90
43607;DHT22;29197;44.788;10.366;2023-06-26T08:26:29;29.70;99.90
43607;DHT22;29197;44.788;10.366;2023-06-26T08:29:18;29.70;99.90
43607;DHT22;29197;44.788;10.366;2023-06-26T08:32:08;29.60;99.90
43607;DHT22;29197;44.788;10.366;2023-06-26T08:34:56;29.60;99.90
43607;DHT22;29197;44.788;10.366;2023-06-26T08:37:45;29.60;99.90
43607;DHT22;29197;44.788;10.366;2023-06-26T08:40:33;29.60;99.90
43607;DHT22;29197;44.788;10.366;2023-06-26T08:43:24;29.60;99.90
43607;DHT22;29197;44.788;10.366;2023-06-26T08:46:14;29.60;99.90
43607;DHT22;29197;44.788;10.366;2023-06-26T08:49:14;29.60;99.90
43607;DHT22;29197;44.788;10.366;2023-06-26T08:52:16;29.60;99.90
43607;DHT22;29197;44.788;10.366;2023-06-26T08:55:09;29.70;99.90
43607;DHT22;29197;44.788;10.366;2023-06-26T08:57:58;29.70;99.90
43607;DHT22;29197;44.788;10.366;2023-06-26T09:00:49;29.80;99.90
43607;DHT22;29197;44.788;10.366;2023-06-26T09:03:37;29.90;99.90
43607;DHT22;29197;44.788;10.366;2023-06-26T09:06:27;29.80;99.90
43607;DHT22;29197;44.788;10.366;2023-06-26T09:09:16;29.80;99.90
43607;DHT22;29197;44.788;10.366;2023-06-26T09:12:05;29.80;99.90
43607;DHT22;29197;44.788;10.366;2023-06-26T09:14:55;29.80;99.90
43607;DHT22;29197;44.788;10.366;2023-06-26T09:17:44;29.80;99.90
43607;DHT22;29197;44.788;10.366;2023-06-26T09:20:33;29.90;99.90
43607;DHT22;29197;44.788;10.366;2023-06-26T09:23:23;29.90;99.90
43607;DHT22;29197;44.788;10.366;2023-06-26T09:26:11;29.90;99.90
43607;DHT22;29197;44.788;10.366;2023-06-26T09:29:00;30.00;99.90
43607;DHT22;29197;44.788;10.366;2023-06-26T09:31:51;30.00;99.90
43607;DHT22;29197;44.788;10.366;2023-06-26T09:34:42;30.00;99.90
43607;DHT22;29197;44.788;10.366;2023-06-26T09:37:32;30.10;99.90
43607;DHT22;29197;44.788;10.366;2023-06-26T09:40:25;30.00;99.90
43607;DHT22;29197;44.788;10.366;2023-06-26T09:43:13;30.00;99.90
43607;DHT22;29197;44.788;10.366;2023-06-26T09:46:02;30.00;99.90
43607;DHT22;29197;44.788;10.366;2023-06-26T09:48:58;30.10;99.90
43607;DHT22;29197;44.788;10.366;2023-06-26T09:51:47;30.10;99.90
43607;DHT22;29197;44.788;10.366;2023-06-26T09:54:37;30.20;99.90
43607;DHT22;29197;44.788;10.366;2023-06-26T09:57:27;30.20;99.90
43607;DHT22;29197;44.788;10.366;2023-06-26T10:00:16;30.30;99.90
43607;DHT22;29197;44.788;10.366;2023-06-26T10:03:05;30.40;99.90
43607;DHT22;29197;44.788;10.366;2023-06-26T10:05:53;30.50;99.90
43607;DHT22;29197;44.788;10.366;2023-06-26T10:08:43;30.40;99.90
43607;DHT22;29197;44.788;10.366;2023-06-26T10:11:36;30.50;99.90
43607;DHT22;29197;44.788;10.366;2023-06-26T10:14:30;30.40;99.90
43607;DHT22;29197;44.788;10.366;2023-06-26T10:17:20;30.50;99.90
43607;DHT22;29197;44.788;10.366;2023-06-26T10:20:10;30.50;99.90
43607;DHT22;29197;44.788;10.366;2023-06-26T10:23:00;30.60;99.90
43607;DHT22;29197;44.788;10.366;2023-06-26T10:25:51;30.70;99.90
43607;DHT22;29197;44.788;10.366;2023-06-26T10:28:40;30.70;99.90
43607;DHT22;29197;44.788;10.366;2023-06-26T10:31:32;30.80;99.90
43607;DHT22;29197;44.788;10.366;2023-06-26T10:34:21;31.00;99.90
43607;DHT22;29197;44.788;10.366;2023-06-26T10:37:09;31.10;99.10
43607;DHT22;29197;44.788;10.366;2023-06-26T10:40:00;31.10;99.20
43607;DHT22;29197;44.788;10.366;2023-06-26T10:42:49;31.10;99.80
43607;DHT22;29197;44.788;10.366;2023-06-26T10:45:44;31.10;99.90
43607;DHT22;29197;44.788;10.366;2023-06-26T10:48:57;31.20;99.40
43607;DHT22;29197;44.788;10.366;2023-06-26T10:51:47;31.20;99.30
43607;DHT22;29197;44.788;10.366;2023-06-26T10:54:37;31.40;99.40
43607;DHT22;29197;44.788;10.366;2023-06-26T10:57:26;31.50;99.20
43607;DHT22;29197;44.788;10.366;2023-06-26T11:00:15;31.70;98.10
43607;DHT22;29197;44.788;10.366;2023-06-26T11:03:23;31.70;97.80
43607;DHT22;29197;44.788;10.366;2023-06-26T11:06:14;31.60;97.00
43607;DHT22;29197;44.788;10.366;2023-06-26T11:09:07;31.60;97.40
43607;DHT22;29197;44.788;10.366;2023-06-26T11:40:32;33.10;96.00
43607;DHT22;29197;44.788;10.366;2023-06-26T11:43:20;33.20;95.60
43607;DHT22;29197;44.788;10.366;2023-06-26T11:46:09;33.30;95.60
43607;DHT22;29197;44.788;10.366;2023-06-26T11:48:58;33.40;95.50
43607;DHT22;29197;44.788;10.366;2023-06-26T11:51:46;33.70;95.60
43607;DHT22;29197;44.788;10.366;2023-06-26T11:54:35;33.80;94.90
43607;DHT22;29197;44.788;10.366;2023-06-26T11:57:26;33.90;94.20
43607;DHT22;29197;44.788;10.366;2023-06-26T12:00:15;34.00;93.40
43607;DHT22;29197;44.788;10.366;2023-06-26T12:05:53;34.20;99.90
43607;DHT22;29197;44.788;10.366;2023-06-26T12:08:42;34.30;99.90
43607;DHT22;29197;44.788;10.366;2023-06-26T12:14:22;34.50;99.90
43607;DHT22;29197;44.788;10.366;2023-06-26T12:17:13;34.60;98.40
43607;DHT22;29197;44.788;10.366;2023-06-26T12:20:02;34.70;95.70
43607;DHT22;29197;44.788;10.366;2023-06-26T12:25:41;34.80;99.90
43607;DHT22;29197;44.788;10.366;2023-06-26T12:28:36;34.90;99.10
43607;DHT22;29197;44.788;10.366;2023-06-26T12:34:18;35.10;90.90
43607;DHT22;29197;44.788;10.366;2023-06-26T12:37:08;35.10;90.10
43607;DHT22;29197;44.788;10.366;2023-06-26T12:39:57;35.10;90.40
43607;DHT22;29197;44.788;10.366;2023-06-26T12:42:46;35.10;90.00
43607;DHT22;29197;44.788;10.366;2023-06-26T12:45:37;35.20;90.00
43607;DHT22;29197;44.788;10.366;2023-06-26T12:48:38;35.30;88.40
43607;DHT22;29197;44.788;10.366;2023-06-26T12:51:30;35.30;88.60
43607;DHT22;29197;44.788;10.366;2023-06-26T12:54:20;35.30;89.30
43607;DHT22;29197;44.788;10.366;2023-06-26T12:57:08;35.30;89.70
43607;DHT22;29197;44.788;10.366;2023-06-26T12:59:57;35.30;89.90
43607;DHT22;29197;44.788;10.366;2023-06-26T13:05:38;35.40;88.20
43607;DHT22;29197;44.788;10.366;2023-06-26T13:08:26;35.50;88.00
43607;DHT22;29197;44.788;10.366;2023-06-26T13:11:16;35.50;88.60
43607;DHT22;29197;44.788;10.366;2023-06-26T13:14:04;35.50;87.60
43607;DHT22;29197;44.788;10.366;2023-06-26T13:16:58;35.40;87.20
43607;DHT22;29197;44.788;10.366;2023-06-26T13:19:46;35.20;86.80
43607;DHT22;29197;44.788;10.366;2023-06-26T13:22:36;35.10;89.90
43607;DHT22;29197;44.788;10.366;2023-06-26T13:25:25;35.10;88.60
43607;DHT22;29197;44.788;10.366;2023-06-26T13:28:13;35.30;90.10
43607;DHT22;29197;44.788;10.366;2023-06-26T13:31:02;35.50;89.90
43607;DHT22;29197;44.788;10.366;2023-06-26T13:36:40;35.80;99.90
43607;DHT22;29197;44.788;10.366;2023-06-26T13:39:30;35.90;99.90
43607;DHT22;29197;44.788;10.366;2023-06-26T13:42:18;35.90;99.90
43607;DHT22;29197;44.788;10.366;2023-06-26T13:45:08;36.00;99.90
43607;DHT22;29197;44.788;10.366;2023-06-26T13:48:13;36.10;99.90
43607;DHT22;29197;44.788;10.366;2023-06-26T13:51:04;36.20;99.90
43607;DHT22;29197;44.788;10.366;2023-06-26T13:53:53;36.10;99.90
43607;DHT22;29197;44.788;10.366;2023-06-26T13:56:43;35.90;99.90
43607;DHT22;29197;44.788;10.366;2023-06-26T13:59:32;35.60;99.90
43607;DHT22;29197;44.788;10.366;2023-06-26T14:05:10;35.60;99.90
43607;DHT22;29197;44.788;10.366;2023-06-26T14:08:01;35.70;99.90
43607;DHT22;29197;44.788;10.366;2023-06-26T14:10:50;35.80;99.90
43607;DHT22;29197;44.788;10.366;2023-06-26T14:13:40;35.80;99.90
43607;DHT22;29197;44.788;10.366;2023-06-26T14:16:29;35.90;99.90
43607;DHT22;29197;44.788;10.366;2023-06-26T14:19:17;35.80;99.90
43607;DHT22;29197;44.788;10.366;2023-06-26T14:22:06;35.90;99.90
43607;DHT22;29197;44.788;10.366;2023-06-26T14:24:55;36.00;99.90
43607;DHT22;29197;44.788;10.366;2023-06-26T14:27:43;35.90;99.90
43607;DHT22;29197;44.788;10.366;2023-06-26T14:30:33;35.90;99.90
43607;DHT22;29197;44.788;10.366;2023-06-26T14:33:22;36.00;99.90
43607;DHT22;29197;44.788;10.366;2023-06-26T14:36:10;36.00;99.90
43607;DHT22;29197;44.788;10.366;2023-06-26T14:38:59;35.90;99.90
43607;DHT22;29197;44.788;10.366;2023-06-26T14:41:48;36.00;99.90
43607;DHT22;29197;44.788;10.366;2023-06-26T14:44:37;36.00;99.90
43607;DHT22;29197;44.788;10.366;2023-06-26T14:47:27;36.00;99.90
43607;DHT22;29197;44.788;10.366;2023-06-26T14:50:16;36.00;99.90
43607;DHT22;29197;44.788;10.366;2023-06-26T14:53:04;35.90;99.90
43607;DHT22;29197;44.788;10.366;2023-06-26T14:55:53;35.90;99.90
43607;DHT22;29197;44.788;10.366;2023-06-26T14:58:42;35.80;99.90
43607;DHT22;29197;44.788;10.366;2023-06-26T15:01:30;35.90;99.90
43607;DHT22;29197;44.788;10.366;2023-06-26T15:04:21;35.90;99.90
43607;DHT22;29197;44.788;10.366;2023-06-26T15:07:09;35.80;99.90
43607;DHT22;29197;44.788;10.366;2023-06-26T15:09:58;35.80;99.90
43607;DHT22;29197;44.788;10.366;2023-06-26T15:12:47;35.90;99.90
43607;DHT22;29197;44.788;10.366;2023-06-26T15:15:36;35.70;99.90
43607;DHT22;29197;44.788;10.366;2023-06-26T15:18:24;35.70;99.90
43607;DHT22;29197;44.788;10.366;2023-06-26T15:21:14;35.50;99.90
43607;DHT22;29197;44.788;10.366;2023-06-26T15:24:03;35.50;99.90
43607;DHT22;29197;44.788;10.366;2023-06-26T15:26:51;35.40;99.90
43607;DHT22;29197;44.788;10.366;2023-06-26T15:32:29;35.30;99.90
43607;DHT22;29197;44.788;10.366;2023-06-26T15:35:17;35.20;99.90
43607;DHT22;29197;44.788;10.366;2023-06-26T15:38:07;35.20;99.90
43607;DHT22;29197;44.788;10.366;2023-06-26T15:43:46;35.10;86.50
43607;DHT22;29197;44.788;10.366;2023-06-26T15:46:34;35.00;88.00
43607;DHT22;29197;44.788;10.366;2023-06-26T15:49:23;35.10;88.20
43607;DHT22;29197;44.788;10.366;2023-06-26T15:52:12;35.00;88.10
43607;DHT22;29197;44.788;10.366;2023-06-26T15:55:01;34.90;87.70
43607;DHT22;29197;44.788;10.366;2023-06-26T15:57:50;34.90;88.30
43607;DHT22;29197;44.788;10.366;2023-06-26T16:00:39;34.90;88.60
43607;DHT22;29197;44.788;10.366;2023-06-26T16:03:27;34.80;88.60
43607;DHT22;29197;44.788;10.366;2023-06-26T16:06:16;34.80;89.00
43607;DHT22;29197;44.788;10.366;2023-06-26T16:09:05;34.70;88.80
43607;DHT22;29197;44.788;10.366;2023-06-26T16:11:55;34.60;88.70
43607;DHT22;29197;44.788;10.366;2023-06-26T16:14:44;34.60;89.10
43607;DHT22;29197;44.788;10.366;2023-06-26T16:17:32;34.50;88.70
43607;DHT22;29197;44.788;10.366;2023-06-26T16:20:21;34.50;89.20
43607;DHT22;29197;44.788;10.366;2023-06-26T16:23:09;34.40;89.50
43607;DHT22;29197;44.788;10.366;2023-06-26T16:25:58;34.40;89.20
43607;DHT22;29197;44.788;10.366;2023-06-26T16:28:48;34.30;88.90
43607;DHT22;29197;44.788;10.366;2023-06-26T16:31:37;34.30;89.00
43607;DHT22;29197;44.788;10.366;2023-06-26T16:34:26;34.20;88.50
43607;DHT22;29197;44.788;10.366;2023-06-26T16:37:15;34.20;89.10
43607;DHT22;29197;44.788;10.366;2023-06-26T16:40:05;34.10;89.10
43607;DHT22;29197;44.788;10.366;2023-06-26T16:42:54;34.00;89.60
43607;DHT22;29197;44.788;10.366;2023-06-26T16:45:44;34.00;88.90
43607;DHT22;29197;44.788;10.366;2023-06-26T16:48:32;33.90;89.30
43607;DHT22;29197;44.788;10.366;2023-06-26T16:51:21;33.80;88.80
43607;DHT22;29197;44.788;10.366;2023-06-26T16:54:09;33.80;89.50
43607;DHT22;29197;44.788;10.366;2023-06-26T16:56:58;33.70;88.20
43607;DHT22;29197;44.788;10.366;2023-06-26T16:59:46;33.60;88.30
43607;DHT22;29197;44.788;10.366;2023-06-26T17:02:36;33.60;89.40
43607;DHT22;29197;44.788;10.366;2023-06-26T17:05:25;33.50;89.80
43607;DHT22;29197;44.788;10.366;2023-06-26T17:08:14;33.50;90.00
43607;DHT22;29197;44.788;10.366;2023-06-26T17:11:02;33.40;90.30
43607;DHT22;29197;44.788;10.366;2023-06-26T17:13:51;33.40;90.60
43607;DHT22;29197;44.788;10.366;2023-06-26T17:16:39;33.30;91.00
43607;DHT22;29197;44.788;10.366;2023-06-26T17:19:29;33.20;91.00
43607;DHT22;29197;44.788;10.366;2023-06-26T17:22:18;33.20;91.10
43607;DHT22;29197;44.788;10.366;2023-06-26T17:25:08;33.10;91.50
43607;DHT22;29197;44.788;10.366;2023-06-26T17:27:58;33.10;91.20
43607;DHT22;29197;44.788;10.366;2023-06-26T17:30:47;33.00;91.00
43607;DHT22;29197;44.788;10.366;2023-06-26T17:33:36;32.90;91.50
43607;DHT22;29197;44.788;10.366;2023-06-26T17:36:26;32.90;91.30
43607;DHT22;29197;44.788;10.366;2023-06-26T17:39:14;32.80;91.40
43607;DHT22;29197;44.788;10.366;2023-06-26T17:42:03;32.80;91.60
43607;DHT22;29197;44.788;10.366;2023-06-26T17:44:51;32.70;91.80
43607;DHT22;29197;44.788;10.366;2023-06-26T17:47:40;32.70;91.90
43607;DHT22;29197;44.788;10.366;2023-06-26T17:50:29;32.60;92.00
43607;DHT22;29197;44.788;10.366;2023-06-26T17:53:19;32.60;92.30
43607;DHT22;29197;44.788;10.366;2023-06-26T17:56:08;32.50;92.80
43607;DHT22;29197;44.788;10.366;2023-06-26T17:58:56;32.50;93.10
43607;DHT22;29197;44.788;10.366;2023-06-26T18:01:45;32.40;93.10
43607;DHT22;29197;44.788;10.366;2023-06-26T18:04:35;32.40;93.00
43607;DHT22;29197;44.788;10.366;2023-06-26T18:07:23;32.30;93.10
43607;DHT22;29197;44.788;10.366;2023-06-26T18:10:13;32.30;93.20
43607;DHT22;29197;44.788;10.366;2023-06-26T18:13:02;32.20;93.30
43607;DHT22;29197;44.788;10.366;2023-06-26T18:15:50;32.20;93.60
43607;DHT22;29197;44.788;10.366;2023-06-26T18:18:39;32.10;94.60
43607;DHT22;29197;44.788;10.366;2023-06-26T18:21:28;32.10;94.70
43607;DHT22;29197;44.788;10.366;2023-06-26T18:24:17;32.10;94.30
43607;DHT22;29197;44.788;10.366;2023-06-26T18:27:07;32.00;94.50
43607;DHT22;29197;44.788;10.366;2023-06-26T18:29:56;31.60;94.60
43607;DHT22;29197;44.788;10.366;2023-06-26T18:32:45;31.90;99.90
43607;DHT22;29197;44.788;10.366;2023-06-26T18:35:34;31.80;99.90
43607;DHT22;29197;44.788;10.366;2023-06-26T18:38:24;31.50;99.90
43607;DHT22;29197;44.788;10.366;2023-06-26T18:41:12;31.70;99.90
43607;DHT22;29197;44.788;10.366;2023-06-26T18:44:03;31.70;99.90
43607;DHT22;29197;44.788;10.366;2023-06-26T18:46:53;31.60;99.90
43607;DHT22;29197;44.788;10.366;2023-06-26T18:49:42;31.60;99.90
43607;DHT22;29197;44.788;10.366;2023-06-26T18:52:31;31.60;99.90
43607;DHT22;29197;44.788;10.366;2023-06-26T18:55:19;31.60;99.90
43607;DHT22;29197;44.788;10.366;2023-06-26T18:58:08;31.50;97.20
43607;DHT22;29197;44.788;10.366;2023-06-26T19:00:58;31.50;97.40
43607;DHT22;29197;44.788;10.366;2023-06-26T19:03:47;31.40;97.40
43607;DHT22;29197;44.788;10.366;2023-06-26T19:06:36;31.30;97.70
43607;DHT22;29197;44.788;10.366;2023-06-26T19:09:25;31.30;98.10
43607;DHT22;29197;44.788;10.366;2023-06-26T19:12:14;31.20;98.70
43607;DHT22;29197;44.788;10.366;2023-06-26T19:15:05;31.10;99.90
43607;DHT22;29197;44.788;10.366;2023-06-26T19:17:55;31.10;99.90
43607;DHT22;29197;44.788;10.366;2023-06-26T19:20:44;31.00;99.70
43607;DHT22;29197;44.788;10.366;2023-06-26T19:23:33;31.00;98.20
43607;DHT22;29197;44.788;10.366;2023-06-26T19:26:21;30.90;98.10
43607;DHT22;29197;44.788;10.366;2023-06-26T19:29:10;30.90;97.70
43607;DHT22;29197;44.788;10.366;2023-06-26T19:31:58;30.80;97.70
43607;DHT22;29197;44.788;10.366;2023-06-26T19:34:49;30.80;97.60
43607;DHT22;29197;44.788;10.366;2023-06-26T19:37:38;30.70;97.60
43607;DHT22;29197;44.788;10.366;2023-06-26T19:40:46;30.70;97.70
43607;DHT22;29197;44.788;10.366;2023-06-26T19:43:35;30.70;97.70
43607;DHT22;29197;44.788;10.366;2023-06-26T19:46:23;30.70;97.50
43607;DHT22;29197;44.788;10.366;2023-06-26T19:49:13;30.70;97.30
43607;DHT22;29197;44.788;10.366;2023-06-26T19:52:03;30.70;97.30
43607;DHT22;29197;44.788;10.366;2023-06-26T19:54:52;30.60;97.50
43607;DHT22;29197;44.788;10.366;2023-06-26T19:57:42;30.60;97.80
43607;DHT22;29197;44.788;10.366;2023-06-26T20:00:30;30.50;98.10
43607;DHT22;29197;44.788;10.366;2023-06-26T20:03:19;30.50;98.30
43607;DHT22;29197;44.788;10.366;2023-06-26T20:06:08;30.40;98.40
43607;DHT22;29197;44.788;10.366;2023-06-26T20:08:58;30.30;98.60
43607;DHT22;29197;44.788;10.366;2023-06-26T20:11:46;30.30;98.70
43607;DHT22;29197;44.788;10.366;2023-06-26T20:14:35;30.20;99.10
43607;DHT22;29197;44.788;10.366;2023-06-26T20:17:23;30.10;99.40
43607;DHT22;29197;44.788;10.366;2023-06-26T20:20:12;30.00;99.60
43607;DHT22;29197;44.788;10.366;2023-06-26T20:23:00;30.00;99.80
43607;DHT22;29197;44.788;10.366;2023-06-26T20:25:51;29.90;99.90
43607;DHT22;29197;44.788;10.366;2023-06-26T20:28:40;29.90;99.90
43607;DHT22;29197;44.788;10.366;2023-06-26T20:31:28;29.80;99.90
43607;DHT22;29197;44.788;10.366;2023-06-26T20:34:18;29.80;99.90
43607;DHT22;29197;44.788;10.366;2023-06-26T20:37:06;29.60;99.90
43607;DHT22;29197;44.788;10.366;2023-06-26T20:39:56;29.40;99.90
43607;DHT22;29197;44.788;10.366;2023-06-26T20:42:46;29.20;99.90
43607;DHT22;29197;44.788;10.366;2023-06-26T20:45:35;29.00;99.90
43607;DHT22;29197;44.788;10.366;2023-06-26T20:48:25;28.90;99.90
43607;DHT22;29197;44.788;10.366;2023-06-26T20:56:52;31.20;99.90